Time;durP1;ratioP1;P1;durP2;ratioP2;P2;SDS_P1;SDS_P2;PMS_P1;PMS_P2;Temp;Humidity;BMP_temperature;BMP_pressure;BME280_temperature;BME280_humidity;BME280_pressure;Samples;Min_cycle;Max_cycle;Signal;HPM_P1;HPM_P2
2023/11/29 00:02:02;;;;;;;1.73;1.63;;;2.80;93.50;;;;;;6119244;23;20010;-78
2023/11/29 00:04:27;;;;;;;2.22;1.90;;;2.80;93.50;;;;;;6120236;23;20002;-76
2023/11/29 00:06:53;;;;;;;1.77;1.63;;;2.80;93.50;;;;;;6121300;23;20035;-79
2023/11/29 00:09:18;;;;;;;3.53;2.40;;;2.80;93.50;;;;;;6097274;23;20026;-75
2023/11/29 00:11:45;;;;;;;3.20;2.65;;;2.80;93.60;;;;;;6122307;23;20002;-78
2023/11/29 00:14:10;;;;;;;3.63;3.00;;;2.80;93.60;;;;;;6122785;23;20006;-78
2023/11/29 00:16:36;;;;;;;4.65;2.85;;;2.70;93.70;;;;;;6122682;23;20097;-76
2023/11/29 00:19:01;;;;;;;4.63;3.28;;;2.70;93.80;;;;;;6121160;23;20009;-79
2023/11/29 00:21:28;;;;;;;4.22;3.05;;;2.70;93.90;;;;;;6122576;23;20010;-78
2023/11/29 00:23:54;;;;;;;4.15;3.00;;;2.70;94.00;;;;;;6095440;23;20006;-78
2023/11/29 00:26:23;;;;;;;4.78;3.70;;;2.80;94.00;;;;;;6123023;23;20035;-77
2023/11/29 00:28:50;;;;;;;5.78;3.85;;;2.80;94.00;;;;;;6095653;23;20010;-76
2023/11/29 00:31:16;;;;;;;4.20;3.05;;;2.80;94.10;;;;;;6122567;23;20039;-77
2023/11/29 00:33:42;;;;;;;6.72;4.13;;;2.80;94.10;;;;;;6122945;23;20005;-76
2023/11/29 00:36:09;;;;;;;6.07;4.07;;;2.80;94.20;;;;;;6097581;23;20002;-78
2023/11/29 00:38:35;;;;;;;6.25;3.85;;;2.80;94.20;;;;;;6096373;23;20450;-77
2023/11/29 00:41:01;;;;;;;7.15;4.40;;;2.80;94.20;;;;;;6122251;23;20010;-77
2023/11/29 00:43:26;;;;;;;5.35;3.50;;;2.80;94.20;;;;;;6123105;23;20513;-76
2023/11/29 00:45:52;;;;;;;5.60;3.67;;;2.90;94.30;;;;;;6122611;23;20471;-79
2023/11/29 00:48:17;;;;;;;4.20;2.83;;;2.90;94.30;;;;;;6122436;23;20073;-75
2023/11/29 00:50:43;;;;;;;2.95;2.30;;;2.90;94.30;;;;;;6122003;23;20005;-78
2023/11/29 00:53:08;;;;;;;4.78;3.90;;;3.00;94.30;;;;;;6095901;23;20002;-77
2023/11/29 00:55:34;;;;;;;5.90;4.18;;;2.90;94.30;;;;;;6095937;23;20030;-77
2023/11/29 00:57:59;;;;;;;5.38;3.28;;;2.90;94.40;;;;;;6122267;23;20581;-78
2023/11/29 01:00:25;;;;;;;3.83;2.58;;;2.90;94.40;;;;;;6122624;23;20016;-77
2023/11/29 01:02:50;;;;;;;4.70;2.65;;;2.90;94.40;;;;;;6096033;23;20013;-77
2023/11/29 01:05:16;;;;;;;4.55;3.45;;;3.00;94.50;;;;;;6122782;23;20101;-78
2023/11/29 01:07:41;;;;;;;4.45;3.10;;;3.00;94.70;;;;;;6122054;23;20130;-76
2023/11/29 01:10:07;;;;;;;7.93;4.57;;;3.00;94.40;;;;;;6121987;23;20876;-78
2023/11/29 01:12:33;;;;;;;5.57;3.20;;;2.90;94.50;;;;;;6121838;23;20454;-77
2023/11/29 01:14:58;;;;;;;4.05;2.90;;;2.90;94.50;;;;;;6096403;23;20060;-78
2023/11/29 01:17:24;;;;;;;4.10;3.05;;;2.90;94.60;;;;;;6096266;23;20014;-76
2023/11/29 01:19:50;;;;;;;2.95;2.58;;;3.00;94.70;;;;;;6121908;23;20556;-78
2023/11/29 01:22:15;;;;;;;4.97;3.50;;;3.00;94.70;;;;;;6122889;23;20005;-77
2023/11/29 01:24:41;;;;;;;5.22;3.47;;;3.00;94.70;;;;;;6121881;23;20056;-77
2023/11/29 01:27:07;;;;;;;5.53;4.18;;;3.00;94.80;;;;;;6095214;23;20476;-78
2023/11/29 01:29:33;;;;;;;5.20;3.83;;;3.00;94.80;;;;;;6122045;23;20473;-77
2023/11/29 01:31:58;;;;;;;5.63;4.05;;;3.00;94.90;;;;;;6095931;23;20002;-78
2023/11/29 01:34:24;;;;;;;5.15;3.60;;;3.00;94.90;;;;;;6122231;23;20005;-76
2023/11/29 01:36:49;;;;;;;6.90;5.10;;;3.00;95.00;;;;;;6121902;23;20006;-76
2023/11/29 01:39:15;;;;;;;6.07;4.70;;;3.00;95.10;;;;;;6121958;23;20002;-75
2023/11/29 01:41:42;;;;;;;8.10;6.18;;;3.00;95.20;;;;;;6122200;23;20121;-75
2023/11/29 01:44:07;;;;;;;7.47;5.07;;;3.00;95.30;;;;;;6121537;23;20460;-77
2023/11/29 01:46:34;;;;;;;4.40;3.42;;;3.00;95.30;;;;;;6122118;23;20036;-78
2023/11/29 01:49:01;;;;;;;4.40;3.42;;;3.00;95.30;;;;;;6093044;23;20002;-75
2023/11/29 01:51:27;;;;;;;4.50;3.50;;;3.00;95.30;;;;;;6121906;23;20010;-78
2023/11/29 01:53:54;;;;;;;2.53;2.33;;;3.00;95.30;;;;;;6120751;23;20063;-76
2023/11/29 01:56:21;;;;;;;3.75;2.30;;;3.00;95.30;;;;;;6121857;23;20001;-76
2023/11/29 01:58:47;;;;;;;2.47;1.85;;;3.10;95.40;;;;;;6121159;23;20329;-75
2023/11/29 02:01:14;;;;;;;3.13;2.17;;;3.10;95.40;;;;;;6122265;23;20010;-78
2023/11/29 02:03:40;;;;;;;4.63;2.58;;;3.10;95.40;;;;;;6094703;23;20322;-77
2023/11/29 02:06:07;;;;;;;3.03;2.55;;;3.10;95.40;;;;;;6120941;23;20451;-77
2023/11/29 02:08:34;;;;;;;2.97;2.47;;;3.10;95.50;;;;;;6121108;23;20451;-77
2023/11/29 02:11:00;;;;;;;3.40;2.58;;;3.10;95.50;;;;;;6121425;23;20006;-78
2023/11/29 02:13:26;;;;;;;2.53;2.30;;;3.10;95.40;;;;;;6121479;23;20029;-78
2023/11/29 02:15:52;;;;;;;3.72;2.90;;;3.20;95.50;;;;;;6122262;23;19998;-78
2023/11/29 02:18:17;;;;;;;4.45;2.60;;;3.20;95.50;;;;;;6095625;23;20088;-78
2023/11/29 02:20:43;;;;;;;5.65;3.15;;;3.20;95.50;;;;;;6095544;23;20088;-76
2023/11/29 02:23:15;;;;;;;3.92;3.50;;;3.20;95.60;;;;;;6119979;23;20009;-76
2023/11/29 02:25:40;;;;;;;4.25;3.25;;;3.20;95.70;;;;;;6121124;23;20010;-78
2023/11/29 02:28:06;;;;;;;3.88;3.20;;;3.10;95.70;;;;;;6121141;23;20467;-78
2023/11/29 02:30:31;;;;;;;3.70;2.70;;;3.10;95.80;;;;;;6122413;23;20034;-75
2023/11/29 02:32:57;;;;;;;3.63;2.95;;;3.10;95.80;;;;;;6095509;23;20014;-77
2023/11/29 02:35:22;;;;;;;5.03;3.17;;;3.10;96.10;;;;;;6121326;23;20033;-77
2023/11/29 02:37:48;;;;;;;2.90;2.30;;;3.10;95.80;;;;;;6121138;23;20002;-79
2023/11/29 02:40:13;;;;;;;3.83;3.20;;;3.10;95.90;;;;;;6120724;23;20058;-75
2023/11/29 02:42:39;;;;;;;3.60;3.03;;;3.10;95.90;;;;;;6119934;23;20006;-77
2023/11/29 02:45:06;;;;;;;4.82;4.00;;;3.00;96.00;;;;;;6094431;23;20006;-78
2023/11/29 02:47:32;;;;;;;4.18;3.28;;;3.10;96.00;;;;;;6121072;23;20641;-77
2023/11/29 02:49:58;;;;;;;3.75;2.70;;;3.10;96.00;;;;;;6094438;23;20041;-76
2023/11/29 02:52:23;;;;;;;3.17;2.38;;;3.10;96.10;;;;;;6136432;23;20016;-77
2023/11/29 02:54:49;;;;;;;2.97;2.67;;;3.20;96.10;;;;;;6141985;23;20006;-82
2023/11/29 02:57:14;;;;;;;3.30;3.00;;;3.10;96.10;;;;;;6143474;23;20009;-78
2023/11/29 02:59:41;;;;;;;3.47;3.15;;;3.10;96.10;;;;;;6179441;23;19997;-82
2023/11/29 03:02:07;;;;;;;5.30;3.88;;;3.10;96.20;;;;;;6179913;23;19998;-81
2023/11/29 03:04:33;;;;;;;4.53;3.38;;;3.10;96.20;;;;;;6141992;23;20044;-79
2023/11/29 03:06:58;;;;;;;3.55;3.20;;;3.10;96.20;;;;;;6131746;23;20012;-77
2023/11/29 03:09:24;;;;;;;4.25;3.08;;;3.10;96.20;;;;;;6135628;23;20013;-80
2023/11/29 03:11:50;;;;;;;4.65;3.40;;;3.10;96.30;;;;;;6159183;23;20312;-80
2023/11/29 03:14:15;;;;;;;4.95;3.95;;;3.10;96.60;;;;;;6131625;23;20004;-77
2023/11/29 03:16:41;;;;;;;3.38;2.67;;;3.00;96.30;;;;;;6131293;23;20022;-81
2023/11/29 03:19:07;;;;;;;2.33;2.13;;;3.10;96.40;;;;;;6158372;23;20006;-81
2023/11/29 03:21:33;;;;;;;2.95;2.30;;;3.20;96.50;;;;;;6130957;23;20002;-80
2023/11/29 03:23:58;;;;;;;1.80;1.70;;;3.10;96.50;;;;;;6158003;23;20320;-77
2023/11/29 03:26:24;;;;;;;5.00;3.28;;;3.10;96.40;;;;;;6132034;23;20029;-80
2023/11/29 03:28:49;;;;;;;3.05;2.20;;;3.10;96.40;;;;;;6158635;23;20446;-78
2023/11/29 03:31:15;;;;;;;3.08;2.40;;;3.10;96.50;;;;;;6156721;23;20457;-80
2023/11/29 03:33:40;;;;;;;3.22;2.60;;;3.10;96.50;;;;;;6159385;23;20135;-79
2023/11/29 03:36:07;;;;;;;4.10;2.60;;;3.10;96.50;;;;;;6135361;23;20004;-76
2023/11/29 03:38:33;;;;;;;5.32;3.88;;;3.10;96.50;;;;;;6136570;23;20172;-80
2023/11/29 03:40:58;;;;;;;6.15;4.65;;;3.10;96.50;;;;;;6139448;23;20017;-76
2023/11/29 03:43:24;;;;;;;5.00;3.85;;;3.10;96.60;;;;;;6165227;23;20009;-80
2023/11/29 03:45:50;;;;;;;3.35;2.97;;;3.10;96.60;;;;;;6161023;23;20412;-77
2023/11/29 03:48:15;;;;;;;4.65;3.67;;;3.10;96.60;;;;;;6157116;23;20002;-78
2023/11/29 03:50:41;;;;;;;5.22;3.55;;;3.10;96.60;;;;;;6156395;23;20001;-76
2023/11/29 03:53:06;;;;;;;2.72;2.20;;;3.10;96.60;;;;;;6128383;23;20009;-79
2023/11/29 03:55:32;;;;;;;5.50;3.85;;;3.10;96.60;;;;;;6155808;23;20021;-77
2023/11/29 03:57:58;;;;;;;5.47;3.17;;;3.00;96.60;;;;;;6129572;23;20056;-76
2023/11/29 04:00:23;;;;;;;4.65;3.58;;;3.00;96.70;;;;;;6154796;23;20281;-76
2023/11/29 04:02:49;;;;;;;5.72;4.10;;;3.00;96.70;;;;;;6130081;23;20016;-76
2023/11/29 04:05:14;;;;;;;6.32;4.15;;;3.00;96.70;;;;;;6130512;23;20012;-78
2023/11/29 04:07:41;;;;;;;5.97;3.95;;;3.00;96.80;;;;;;6131464;23;20016;-77
2023/11/29 04:10:06;;;;;;;4.45;3.42;;;3.00;96.80;;;;;;6157151;23;20048;-79
2023/11/29 04:12:32;;;;;;;5.10;4.25;;;3.00;96.80;;;;;;6128356;23;20001;-78
2023/11/29 04:14:57;;;;;;;5.72;3.58;;;3.10;96.80;;;;;;6155967;23;20029;-75
2023/11/29 04:17:23;;;;;;;7.07;4.45;;;3.10;96.80;;;;;;6130303;23;20020;-78
2023/11/29 04:19:49;;;;;;;6.00;4.65;;;3.10;96.80;;;;;;6132147;23;20009;-76
2023/11/29 04:22:14;;;;;;;4.90;3.78;;;3.10;96.90;;;;;;6156274;23;20436;-79
2023/11/29 04:24:40;;;;;;;8.45;6.30;;;3.10;97.00;;;;;;6132667;23;20028;-77
2023/11/29 04:27:05;;;;;;;7.05;5.20;;;3.10;97.00;;;;;;6156271;23;20010;-77
2023/11/29 04:29:31;;;;;;;8.55;6.07;;;3.10;97.30;;;;;;6129387;23;20092;-78
2023/11/29 04:31:56;;;;;;;7.30;5.07;;;3.10;97.00;;;;;;6131055;23;19998;-77
2023/11/29 04:34:22;;;;;;;9.48;5.30;;;3.10;97.10;;;;;;6131145;23;20375;-79
2023/11/29 04:36:47;;;;;;;6.90;5.28;;;3.10;97.20;;;;;;6132016;23;19997;-77
2023/11/29 04:39:13;;;;;;;7.20;5.00;;;3.10;97.30;;;;;;6133274;23;20012;-79
2023/11/29 04:41:42;;;;;;;8.85;4.75;;;3.10;97.40;;;;;;6158329;23;20008;-77
2023/11/29 04:44:09;;;;;;;6.35;4.32;;;3.10;97.50;;;;;;6130268;23;20340;-77
2023/11/29 04:46:35;;;;;;;6.38;4.50;;;3.10;97.50;;;;;;6157299;23;20056;-78
2023/11/29 04:49:01;;;;;;;4.13;3.35;;;3.10;97.50;;;;;;6130911;23;20447;-80
2023/11/29 04:51:26;;;;;;;4.82;3.30;;;3.10;97.50;;;;;;6129855;23;20131;-78
2023/11/29 04:53:52;;;;;;;5.35;4.22;;;3.20;97.50;;;;;;6158223;23;20001;-78
2023/11/29 04:56:18;;;;;;;4.82;3.20;;;3.20;97.50;;;;;;6159185;23;20033;-78
2023/11/29 04:58:44;;;;;;;3.90;3.03;;;3.20;97.60;;;;;;6132526;23;20009;-79
2023/11/29 05:01:11;;;;;;;3.22;2.60;;;3.20;97.60;;;;;;6131682;23;20005;-77
2023/11/29 05:03:38;;;;;;;3.05;2.22;;;3.20;97.60;;;;;;6132228;23;20113;-79
2023/11/29 05:06:05;;;;;;;4.10;3.00;;;3.20;97.50;;;;;;6131369;23;20013;-78
2023/11/29 05:08:32;;;;;;;3.70;2.92;;;3.20;97.50;;;;;;6158785;23;20010;-79
2023/11/29 05:11:01;;;;;;;5.18;3.70;;;3.20;97.60;;;;;;6131776;23;19998;-80
2023/11/29 05:13:27;;;;;;;5.20;3.22;;;3.30;97.70;;;;;;6131181;23;19997;-77
2023/11/29 05:15:53;;;;;;;3.92;2.78;;;3.30;97.70;;;;;;6158731;23;20060;-77
2023/11/29 05:18:18;;;;;;;5.93;3.75;;;3.30;97.70;;;;;;6160636;23;20006;-79
2023/11/29 05:20:44;;;;;;;4.80;3.33;;;3.30;97.80;;;;;;6133075;23;20001;-80
2023/11/29 05:23:10;;;;;;;8.02;3.50;;;3.30;97.80;;;;;;6160064;23;20009;-78
2023/11/29 05:25:35;;;;;;;5.70;3.28;;;3.30;97.80;;;;;;6164197;23;20008;-80
2023/11/29 05:28:01;;;;;;;5.30;2.95;;;3.30;97.80;;;;;;6163208;23;20343;-78
2023/11/29 05:30:27;;;;;;;3.60;2.45;;;3.30;97.80;;;;;;6165291;23;19997;-79
2023/11/29 05:32:53;;;;;;;4.30;2.92;;;3.30;97.80;;;;;;6165897;23;19998;-78
2023/11/29 05:35:18;;;;;;;3.05;2.50;;;3.40;97.90;;;;;;6139399;23;19998;-80
2023/11/29 05:37:44;;;;;;;3.88;2.97;;;3.40;97.80;;;;;;6137656;23;20019;-79
2023/11/29 05:40:10;;;;;;;4.38;3.03;;;3.40;97.90;;;;;;6138043;23;20104;-79
2023/11/29 05:42:38;;;;;;;3.40;2.65;;;3.50;97.90;;;;;;6136092;23;20001;-79
2023/11/29 05:45:05;;;;;;;4.50;2.70;;;3.50;97.90;;;;;;6133834;23;20355;-79
2023/11/29 05:47:31;;;;;;;4.03;2.35;;;3.50;97.80;;;;;;6134708;23;20016;-78
2023/11/29 05:49:59;;;;;;;3.80;2.42;;;3.50;97.80;;;;;;6161558;23;20005;-80
2023/11/29 05:52:25;;;;;;;2.30;2.05;;;3.50;97.80;;;;;;6129959;23;20006;-76
2023/11/29 05:54:50;;;;;;;2.58;2.20;;;3.60;97.80;;;;;;6131597;23;20386;-79
2023/11/29 05:57:16;;;;;;;3.10;2.28;;;3.60;97.80;;;;;;6132588;23;20042;-78
2023/11/29 05:59:42;;;;;;;4.43;3.28;;;3.60;97.80;;;;;;6142120;23;20025;-81
2023/11/29 06:02:07;;;;;;;4.30;2.67;;;3.60;97.80;;;;;;6144181;23;20001;-78
2023/11/29 06:04:33;;;;;;;3.38;2.38;;;3.50;97.80;;;;;;6161952;23;20393;-79
2023/11/29 06:06:59;;;;;;;4.10;2.60;;;3.50;97.90;;;;;;6136263;23;20029;-80
2023/11/29 06:09:30;;;;;;;2.65;2.08;;;3.60;97.90;;;;;;6142650;23;20005;-80
2023/11/29 06:11:56;;;;;;;3.67;2.05;;;3.60;97.90;;;;;;6143290;23;20002;-78
2023/11/29 06:14:22;;;;;;;3.03;2.00;;;3.60;98.00;;;;;;6157569;23;20001;-76
2023/11/29 06:16:48;;;;;;;2.88;2.05;;;3.60;97.90;;;;;;6131239;23;19997;-79
2023/11/29 06:19:14;;;;;;;3.33;2.25;;;3.60;98.00;;;;;;6129654;23;20009;-80
2023/11/29 06:21:40;;;;;;;2.42;1.80;;;3.70;97.90;;;;;;6156872;23;20006;-78
2023/11/29 06:24:06;;;;;;;2.63;2.00;;;3.70;97.90;;;;;;6156055;23;20450;-78
2023/11/29 06:26:32;;;;;;;2.70;1.95;;;3.70;97.80;;;;;;6132288;23;20009;-78
2023/11/29 06:28:58;;;;;;;2.08;1.77;;;3.70;97.80;;;;;;6124701;23;20009;-76
2023/11/29 06:31:25;;;;;;;3.15;2.10;;;3.70;97.90;;;;;;6128619;23;19998;-76
2023/11/29 06:33:51;;;;;;;2.22;1.88;;;3.70;97.80;;;;;;6128700;23;20366;-77
2023/11/29 06:36:17;;;;;;;3.40;1.80;;;3.80;97.90;;;;;;6156358;23;19998;-79
2023/11/29 06:38:42;;;;;;;2.70;1.50;;;3.70;97.80;;;;;;6156402;23;20005;-79
2023/11/29 06:41:08;;;;;;;1.50;1.40;;;3.80;97.80;;;;;;6129023;23;20048;-76
2023/11/29 06:43:34;;;;;;;1.30;1.20;;;3.80;97.80;;;;;;6155174;23;20002;-79
2023/11/29 06:46:03;;;;;;;1.55;1.33;;;3.80;97.70;;;;;;6132105;23;20099;-77
2023/11/29 06:48:29;;;;;;;2.25;1.10;;;3.90;97.70;;;;;;6156464;23;20012;-77
2023/11/29 06:50:54;;;;;;;1.10;1.00;;;3.90;97.70;;;;;;6156220;23;20001;-79
2023/11/29 06:53:20;;;;;;;0.90;0.90;;;3.90;97.70;;;;;;6130252;23;20168;-78
2023/11/29 06:55:48;;;;;;;1.23;0.90;;;3.90;97.70;;;;;;6131166;23;20037;-79
2023/11/29 06:58:14;;;;;;;1.95;0.90;;;3.90;97.70;;;;;;6129505;23;20224;-77
2023/11/29 07:00:40;;;;;;;1.75;0.85;;;4.00;97.70;;;;;;6131809;23;20064;-79
2023/11/29 07:03:06;;;;;;;1.10;1.10;;;4.00;97.60;;;;;;6131617;23;20002;-78
2023/11/29 07:05:31;;;;;;;0.80;0.80;;;4.00;97.60;;;;;;6157606;23;19997;-78
2023/11/29 07:07:57;;;;;;;0.80;0.80;;;4.00;97.50;;;;;;6131177;23;20084;-78
2023/11/29 07:10:23;;;;;;;1.90;0.80;;;4.00;97.50;;;;;;6131751;23;20005;-78
2023/11/29 07:12:49;;;;;;;0.80;0.80;;;4.00;97.50;;;;;;6171769;23;20017;-80
2023/11/29 07:15:15;;;;;;;2.15;0.90;;;4.00;97.40;;;;;;6153309;23;20053;-82
2023/11/29 07:17:41;;;;;;;0.75;0.75;;;4.00;97.40;;;;;;6148448;23;20029;-79
2023/11/29 07:20:07;;;;;;;0.80;0.80;;;4.10;97.40;;;;;;6129327;23;20059;-77
2023/11/29 07:22:34;;;;;;;1.27;0.80;;;4.10;97.40;;;;;;6128980;23;20036;-82
2023/11/29 07:25:01;;;;;;;0.70;0.70;;;4.10;97.40;;;;;;6154063;23;20005;-78
2023/11/29 07:27:27;;;;;;;0.70;0.70;;;4.20;97.40;;;;;;6154788;23;20005;-76
2023/11/29 07:29:53;;;;;;;0.70;0.70;;;4.20;97.30;;;;;;6125869;23;20357;-78
2023/11/29 07:32:22;;;;;;;0.73;0.73;;;4.20;97.30;;;;;;6152998;23;20053;-77
2023/11/29 07:34:51;;;;;;;0.80;0.80;;;4.20;97.20;;;;;;6125385;23;20041;-80
2023/11/29 07:37:20;;;;;;;0.82;0.80;;;4.20;97.20;;;;;;6129890;23;20002;-79
2023/11/29 07:39:46;;;;;;;0.75;0.70;;;4.20;97.20;;;;;;6155301;23;20014;-80
2023/11/29 07:42:12;;;;;;;0.80;0.77;;;4.20;97.20;;;;;;6128153;23;20029;-79
2023/11/29 07:44:38;;;;;;;1.17;0.80;;;4.20;97.10;;;;;;6127830;23;20009;-79
2023/11/29 07:47:04;;;;;;;0.90;0.90;;;4.10;97.30;;;;;;6127016;23;20005;-78
2023/11/29 07:49:31;;;;;;;0.90;0.90;;;4.10;97.00;;;;;;6154613;23;20335;-79
2023/11/29 07:51:57;;;;;;;0.80;0.80;;;4.10;97.10;;;;;;6151591;23;20033;-78
2023/11/29 07:54:22;;;;;;;1.20;0.73;;;4.10;97.10;;;;;;6152482;23;20005;-77
2023/11/29 07:56:48;;;;;;;0.70;0.70;;;4.10;97.10;;;;;;6125007;23;20006;-76
2023/11/29 07:59:14;;;;;;;0.73;0.73;;;4.10;97.10;;;;;;6126677;23;20331;-76
2023/11/29 08:01:40;;;;;;;0.70;0.70;;;4.20;97.10;;;;;;6150296;23;20011;-79
2023/11/29 08:04:07;;;;;;;0.80;0.80;;;4.10;97.00;;;;;;6125022;23;20088;-77
2023/11/29 08:06:33;;;;;;;0.90;0.90;;;4.20;97.10;;;;;;6128297;23;20005;-78
2023/11/29 08:09:00;;;;;;;0.75;0.75;;;4.20;97.10;;;;;;6132091;23;20002;-79
2023/11/29 08:11:26;;;;;;;1.10;0.80;;;4.20;97.00;;;;;;6153890;23;19998;-77
2023/11/29 08:13:52;;;;;;;2.08;1.10;;;4.30;97.00;;;;;;6154852;23;20005;-79
2023/11/29 08:16:18;;;;;;;7.15;2.80;;;4.40;97.00;;;;;;6128478;23;20005;-78
2023/11/29 08:18:43;;;;;;;11.43;4.57;;;4.40;96.90;;;;;;6130968;23;20041;-79
2023/11/29 08:21:09;;;;;;;8.50;3.20;;;4.50;96.80;;;;;;6129798;23;20001;-80
2023/11/29 08:23:35;;;;;;;4.28;2.38;;;4.60;96.60;;;;;;6130190;23;20005;-76
2023/11/29 08:26:01;;;;;;;2.92;1.73;;;4.60;96.40;;;;;;6158701;23;20009;-81
2023/11/29 08:28:26;;;;;;;2.65;1.40;;;4.60;96.30;;;;;;6158256;23;20013;-78
2023/11/29 08:30:52;;;;;;;2.08;1.25;;;4.50;96.20;;;;;;6130762;23;20002;-81
2023/11/29 08:33:18;;;;;;;1.88;1.20;;;4.50;96.30;;;;;;6133855;23;20102;-79
2023/11/29 08:35:47;;;;;;;1.45;1.10;;;4.50;96.30;;;;;;6131673;23;20084;-79
2023/11/29 08:38:12;;;;;;;2.47;1.20;;;4.50;96.40;;;;;;6154051;23;20446;-77
2023/11/29 08:40:38;;;;;;;1.60;1.00;;;4.40;96.40;;;;;;6155523;23;20001;-78
2023/11/29 08:43:05;;;;;;;2.70;1.10;;;4.40;96.50;;;;;;6130241;23;20029;-77
2023/11/29 08:45:31;;;;;;;1.20;1.10;;;4.40;96.50;;;;;;6130482;23;20014;-78
2023/11/29 08:47:56;;;;;;;1.25;1.10;;;4.30;96.50;;;;;;6130296;23;20275;-80
2023/11/29 08:50:22;;;;;;;1.08;1.08;;;4.30;96.60;;;;;;6129673;23;20435;-80
2023/11/29 08:52:50;;;;;;;1.17;1.08;;;4.30;96.60;;;;;;6153355;23;20451;-77
2023/11/29 08:55:15;;;;;;;1.20;1.10;;;4.30;96.60;;;;;;6150721;23;20020;-77
2023/11/29 08:57:41;;;;;;;1.98;1.40;;;4.30;96.70;;;;;;6149818;23;20071;-78
2023/11/29 09:00:09;;;;;;;1.58;1.30;;;4.30;96.70;;;;;;6152195;23;20005;-81
2023/11/29 09:02:35;;;;;;;1.40;1.30;;;4.30;96.60;;;;;;6152657;23;20063;-79
2023/11/29 09:05:03;;;;;;;1.98;1.50;;;4.30;96.60;;;;;;6127074;23;20010;-80
2023/11/29 09:07:29;;;;;;;1.40;1.20;;;4.30;96.60;;;;;;6127828;23;20009;-79
2023/11/29 09:09:56;;;;;;;1.73;1.50;;;4.30;96.60;;;;;;6152689;23;19997;-76
2023/11/29 09:12:25;;;;;;;2.45;1.50;;;4.40;96.60;;;;;;6126300;23;19998;-77
2023/11/29 09:14:56;;;;;;;1.52;1.42;;;4.40;96.60;;;;;;6152963;23;20482;-80
2023/11/29 09:17:23;;;;;;;2.35;1.50;;;4.50;96.60;;;;;;6151659;23;20049;-77
2023/11/29 09:19:53;;;;;;;1.40;1.30;;;4.50;96.50;;;;;;6125588;23;20440;-78
2023/11/29 09:22:21;;;;;;;1.52;1.40;;;4.60;96.50;;;;;;6155649;23;19998;-78
2023/11/29 09:24:48;;;;;;;2.55;1.33;;;4.60;96.40;;;;;;6128850;23;20086;-78
2023/11/29 09:27:13;;;;;;;1.50;1.20;;;4.60;96.30;;;;;;6161257;23;19997;-82
2023/11/29 09:29:39;;;;;;;1.30;1.20;;;4.60;96.20;;;;;;6131494;23;20013;-76
2023/11/29 09:32:05;;;;;;;1.02;1.02;;;4.70;96.20;;;;;;6153228;23;20071;-77
2023/11/29 09:34:31;;;;;;;1.70;1.20;;;4.70;96.20;;;;;;6126955;23;20001;-76
2023/11/29 09:37:00;;;;;;;2.97;1.10;;;4.80;96.20;;;;;;6127079;23;20092;-78
2023/11/29 09:39:30;;;;;;;2.97;1.98;;;4.80;96.00;;;;;;6154416;23;20001;-79
2023/11/29 09:42:00;;;;;;;3.08;2.10;;;4.90;96.00;;;;;;6153809;23;20002;-77
2023/11/29 09:44:27;;;;;;;4.30;2.58;;;4.90;95.90;;;;;;6149502;23;20056;-79
2023/11/29 09:46:53;;;;;;;2.80;2.00;;;4.90;95.90;;;;;;6153420;23;19997;-77
2023/11/29 09:49:20;;;;;;;3.38;1.88;;;4.90;95.80;;;;;;6125644;23;20002;-78
2023/11/29 09:51:46;;;;;;;18.73;9.38;;;5.00;95.80;;;;;;6152861;23;20001;-76
2023/11/29 09:54:12;;;;;;;7.03;4.22;;;5.00;95.70;;;;;;6150077;23;20375;-77
2023/11/29 09:56:38;;;;;;;11.10;6.63;;;5.00;95.70;;;;;;6157024;23;20021;-77
2023/11/29 09:59:03;;;;;;;13.98;8.10;;;5.00;95.60;;;;;;6152746;23;20052;-78
2023/11/29 10:01:47;;;;;;;8.85;4.45;;;5.00;95.80;;;;;;6120332;23;20005;-76
2023/11/29 10:04:13;;;;;;;7.28;4.07;;;4.90;95.60;;;;;;6121161;23;20482;-78
2023/11/29 10:06:39;;;;;;;6.45;4.22;;;5.00;95.60;;;;;;6125124;23;20002;-77
2023/11/29 10:09:13;;;;;;;7.53;3.83;;;4.90;95.50;;;;;;6149278;23;20009;-79
2023/11/29 10:11:39;;;;;;;5.78;3.03;;;5.00;95.60;;;;;;6152228;23;20402;-77
2023/11/29 10:14:05;;;;;;;7.53;4.32;;;5.00;95.60;;;;;;6150094;23;20002;-78
2023/11/29 10:16:32;;;;;;;5.30;3.17;;;5.00;95.50;;;;;;6152342;23;20073;-77
2023/11/29 10:19:01;;;;;;;5.03;2.35;;;5.10;95.40;;;;;;6125957;23;20009;-80
2023/11/29 10:21:26;;;;;;;2.85;2.20;;;5.20;95.40;;;;;;6126312;23;20379;-79
2023/11/29 10:23:53;;;;;;;3.40;2.03;;;5.10;95.20;;;;;;6151597;23;20001;-77
2023/11/29 10:26:19;;;;;;;3.75;1.90;;;5.20;95.20;;;;;;6153832;23;20279;-81
2023/11/29 10:28:44;;;;;;;2.58;1.90;;;5.30;95.20;;;;;;6151353;23;20012;-76
2023/11/29 10:31:11;;;;;;;1.95;1.60;;;5.30;95.10;;;;;;6125731;23;20005;-80
2023/11/29 10:33:39;;;;;;;1.55;1.45;;;5.30;95.00;;;;;;6154071;23;19997;-78
2023/11/29 10:36:06;;;;;;;1.65;1.52;;;5.40;94.90;;;;;;6151752;23;20443;-79
2023/11/29 10:38:42;;;;;;;1.83;1.40;;;5.40;94.80;;;;;;6151508;23;20493;-78
2023/11/29 10:41:09;;;;;;;1.20;1.10;;;5.40;94.80;;;;;;6151439;23;20005;-77
2023/11/29 10:43:38;;;;;;;1.42;1.30;;;5.50;94.70;;;;;;6124092;23;20080;-77
2023/11/29 10:46:22;;;;;;;2.40;1.33;;;5.50;94.70;;;;;;6126668;23;20036;-77
2023/11/29 10:49:12;;;;;;;3.33;1.35;;;5.50;94.60;;;;;;6126430;23;20435;-79
2023/11/29 10:51:39;;;;;;;1.38;1.27;;;5.50;94.60;;;;;;6127568;23;20002;-80
2023/11/29 10:54:06;;;;;;;2.95;1.25;;;5.40;94.50;;;;;;6152807;23;20005;-81
2023/11/29 10:56:34;;;;;;;1.20;1.10;;;5.50;94.50;;;;;;6128664;23;20029;-80
2023/11/29 10:59:30;;;;;;;1.30;1.20;;;5.50;94.40;;;;;;6125883;23;20009;-76
2023/11/29 11:01:56;;;;;;;1.00;1.00;;;5.50;94.40;;;;;;6158139;23;20006;-80
2023/11/29 11:04:22;;;;;;;1.10;1.00;;;5.50;94.30;;;;;;6124875;23;20005;-79
2023/11/29 11:06:49;;;;;;;1.15;1.05;;;5.60;94.30;;;;;;6152204;23;20422;-80
2023/11/29 11:09:31;;;;;;;1.75;1.02;;;5.60;94.20;;;;;;6152225;23;20009;-80
2023/11/29 11:12:00;;;;;;;1.58;1.00;;;5.60;94.20;;;;;;6124818;23;20069;-76
2023/11/29 11:14:48;;;;;;;0.93;0.93;;;5.60;94.10;;;;;;6150434;23;20526;-77
2023/11/29 11:17:18;;;;;;;1.00;1.00;;;5.60;94.10;;;;;;6151104;23;20001;-77
2023/11/29 11:19:45;;;;;;;3.40;1.20;;;5.50;94.00;;;;;;6153687;23;20021;-80
2023/11/29 11:22:24;;;;;;;1.00;1.00;;;5.50;94.00;;;;;;6131331;23;20104;-79
2023/11/29 11:25:07;;;;;;;0.93;0.90;;;5.50;94.10;;;;;;6129305;23;20012;-78
2023/11/29 11:27:41;;;;;;;1.17;1.00;;;5.60;94.10;;;;;;6130886;23;19998;-81
2023/11/29 11:30:18;;;;;;;0.95;0.95;;;5.70;94.00;;;;;;6156831;23;20002;-81
2023/11/29 11:32:51;;;;;;;1.10;1.00;;;5.60;93.90;;;;;;6151765;23;20002;-78
2023/11/29 11:35:17;;;;;;;0.90;0.90;;;5.60;93.90;;;;;;6152414;23;19997;-80
2023/11/29 11:37:48;;;;;;;1.45;1.08;;;5.60;93.90;;;;;;6125832;23;20092;-79
2023/11/29 11:40:14;;;;;;;3.07;1.50;;;5.70;93.90;;;;;;6150960;23;20052;-80
2023/11/29 11:42:41;;;;;;;1.95;1.20;;;5.80;93.80;;;;;;6123916;23;20457;-80
2023/11/29 11:45:11;;;;;;;1.33;1.00;;;5.90;93.80;;;;;;6123442;23;20346;-80
2023/11/29 11:47:38;;;;;;;1.35;0.98;;;5.90;93.70;;;;;;6147984;23;20435;-80
2023/11/29 11:50:05;;;;;;;0.90;0.90;;;5.90;93.60;;;;;;6124023;23;20041;-80
2023/11/29 11:52:31;;;;;;;1.10;1.00;;;5.90;93.60;;;;;;6148686;23;20071;-81
2023/11/29 11:55:02;;;;;;;0.82;0.82;;;5.90;93.50;;;;;;6121370;23;20021;-79
2023/11/29 11:57:29;;;;;;;1.10;1.02;;;5.90;93.50;;;;;;6124774;23;20001;-81
2023/11/29 11:59:56;;;;;;;1.33;1.00;;;5.90;93.40;;;;;;6125675;23;20021;-80
2023/11/29 12:02:21;;;;;;;1.10;1.00;;;5.90;93.40;;;;;;6121104;23;20001;-77
2023/11/29 12:04:47;;;;;;;1.40;1.00;;;5.90;93.40;;;;;;6152108;23;20060;-82
2023/11/29 12:07:12;;;;;;;1.10;1.00;;;5.90;93.30;;;;;;6125212;23;20002;-78
2023/11/29 12:09:38;;;;;;;0.80;0.80;;;5.90;93.30;;;;;;6151925;23;20025;-79
2023/11/29 12:12:11;;;;;;;1.25;1.23;;;5.90;93.30;;;;;;6124737;23;20002;-78
2023/11/29 12:14:45;;;;;;;1.13;0.90;;;5.90;93.30;;;;;;6150987;23;20084;-78
2023/11/29 12:17:12;;;;;;;1.13;0.88;;;6.00;93.40;;;;;;6151394;23;20002;-77
2023/11/29 12:19:41;;;;;;;1.40;0.90;;;6.00;93.30;;;;;;6149879;23;20013;-79
2023/11/29 12:22:07;;;;;;;1.13;0.90;;;6.00;93.30;;;;;;6152266;23;20084;-82
2023/11/29 12:24:43;;;;;;;1.05;0.90;;;6.00;93.20;;;;;;6128005;23;20599;-81
2023/11/29 12:27:11;;;;;;;1.10;1.00;;;6.00;93.20;;;;;;6150970;23;20346;-80
2023/11/29 12:29:40;;;;;;;1.38;1.00;;;6.00;93.10;;;;;;6151136;23;20446;-81
2023/11/29 12:32:07;;;;;;;1.50;1.00;;;6.00;93.10;;;;;;6154153;23;19998;-80
2023/11/29 12:34:33;;;;;;;1.35;1.25;;;6.10;93.10;;;;;;6129384;23;20431;-81
2023/11/29 12:37:00;;;;;;;1.52;1.17;;;6.10;93.00;;;;;;6154581;23;20001;-81
2023/11/29 12:39:33;;;;;;;1.50;1.25;;;6.10;93.00;;;;;;6128086;23;20005;-80
2023/11/29 12:42:03;;;;;;;1.20;1.10;;;6.20;93.00;;;;;;6149478;23;20339;-80
2023/11/29 12:44:28;;;;;;;1.38;1.20;;;6.20;93.20;;;;;;6149295;23;20087;-79
2023/11/29 12:46:54;;;;;;;1.70;1.48;;;6.20;92.80;;;;;;6121918;23;20005;-77
2023/11/29 12:49:20;;;;;;;1.95;1.17;;;6.30;92.80;;;;;;6150181;23;20009;-83
2023/11/29 12:51:46;;;;;;;1.60;1.13;;;6.30;92.70;;;;;;6126887;23;20068;-81
2023/11/29 12:54:12;;;;;;;1.63;1.13;;;6.30;92.60;;;;;;6124413;23;20489;-79
2023/11/29 12:56:38;;;;;;;1.33;1.13;;;6.30;92.70;;;;;;6124896;23;20005;-76